sensor_id;sensor_type;location;lat;lon;timestamp;P1;durP1;ratioP1;P2;durP2;ratioP2
54295;SDS011;47981;43.310;21.888;2022-07-29T09:42:31;38.0;;;45.0;;
54295;SDS011;47981;43.310;21.888;2022-07-29T09:47:08;38.0;;;45.0;;
54295;SDS011;47981;43.310;21.888;2022-07-29T09:51:47;38.0;;;45.0;;
54295;SDS011;47981;43.310;21.888;2022-07-29T09:56:42;38.0;;;45.0;;
54295;SDS011;47981;43.310;21.888;2022-07-29T10:01:29;37.0;;;44.0;;
54295;SDS011;47981;43.310;21.888;2022-07-29T10:06:12;37.0;;;44.0;;
54295;SDS011;47981;43.310;21.888;2022-07-29T10:10:49;36.0;;;43.0;;
54295;SDS011;47981;43.310;21.888;2022-07-29T10:15:40;36.0;;;43.0;;
54295;SDS011;47981;43.310;21.888;2022-07-29T10:20:27;28.0;;;34.0;;
54295;SDS011;47981;43.310;21.888;2022-07-29T10:25:09;28.0;;;34.0;;
54295;SDS011;47981;43.310;21.888;2022-07-29T10:29:46;28.0;;;34.0;;
54295;SDS011;47981;43.310;21.888;2022-07-29T10:35:11;21.0;;;24.0;;
54295;SDS011;47981;43.310;21.888;2022-07-29T10:40:39;21.0;;;24.0;;
54295;SDS011;47981;43.310;21.888;2022-07-29T10:45:31;21.0;;;24.0;;
54295;SDS011;47981;43.310;21.888;2022-07-29T12:20:11;20.0;;;23.0;;
54295;SDS011;47981;43.310;21.888;2022-07-29T12:24:48;20.0;;;23.0;;
54295;SDS011;47981;43.310;21.888;2022-07-29T12:29:27;20.0;;;23.0;;
54295;SDS011;47981;43.310;21.888;2022-07-29T12:34:05;20.0;;;23.0;;
54295;SDS011;47981;43.310;21.888;2022-07-29T12:38:43;20.0;;;23.0;;
54295;SDS011;47981;43.310;21.888;2022-07-29T12:43:26;28.0;;;34.0;;
54295;SDS011;47981;43.310;21.888;2022-07-29T12:48:09;28.0;;;34.0;;
54295;SDS011;47981;43.310;21.888;2022-07-29T12:52:48;37.0;;;44.0;;
54295;SDS011;47981;43.310;21.888;2022-07-29T12:57:29;37.0;;;44.0;;
54295;SDS011;47981;43.310;21.888;2022-07-29T13:02:22;41.0;;;48.0;;
54295;SDS011;47981;43.310;21.888;2022-07-29T13:07:05;41.0;;;48.0;;
54295;SDS011;47981;43.310;21.888;2022-07-29T13:11:49;45.0;;;52.0;;
54295;SDS011;47981;43.310;21.888;2022-07-29T13:16:29;45.0;;;52.0;;
54295;SDS011;47981;43.310;21.888;2022-07-29T13:21:16;45.0;;;52.0;;
54295;SDS011;47981;43.310;21.888;2022-07-29T13:25:52;45.0;;;52.0;;
54295;SDS011;47981;43.310;21.888;2022-07-29T17:44:28;45.0;;;52.0;;
54295;SDS011;47981;43.310;21.888;2022-07-29T17:49:06;45.0;;;52.0;;
54295;SDS011;47981;43.310;21.888;2022-07-29T17:53:43;45.0;;;52.0;;
54295;SDS011;47981;43.310;21.888;2022-07-29T17:58:21;45.0;;;52.0;;
54295;SDS011;47981;43.310;21.888;2022-07-29T18:02:58;45.0;;;52.0;;
54295;SDS011;47981;43.310;21.888;2022-07-29T18:07:35;45.0;;;52.0;;
54295;SDS011;47981;43.310;21.888;2022-07-29T20:21:26;12.0;;;13.0;;
54295;SDS011;47981;43.310;21.888;2022-07-29T20:26:03;12.0;;;13.0;;
54295;SDS011;47981;43.310;21.888;2022-07-29T20:30:41;12.0;;;13.0;;
54295;SDS011;47981;43.310;21.888;2022-07-29T20:35:19;12.0;;;13.0;;
54295;SDS011;47981;43.310;21.888;2022-07-29T20:39:56;12.0;;;13.0;;
54295;SDS011;47981;43.310;21.888;2022-07-29T20:44:33;12.0;;;13.0;;
54295;SDS011;47981;43.310;21.888;2022-07-29T20:49:11;12.0;;;13.0;;
54295;SDS011;47981;43.310;21.888;2022-07-29T20:53:49;12.0;;;13.0;;
54295;SDS011;47981;43.310;21.888;2022-07-29T20:58:26;12.0;;;13.0;;
54295;SDS011;47981;43.310;21.888;2022-07-29T21:03:03;12.0;;;13.0;;
54295;SDS011;47981;43.310;21.888;2022-07-29T21:07:41;12.0;;;13.0;;
54295;SDS011;47981;43.310;21.888;2022-07-29T23:21:28;17.0;;;20.0;;
54295;SDS011;47981;43.310;21.888;2022-07-29T23:26:05;17.0;;;20.0;;
54295;SDS011;47981;43.310;21.888;2022-07-29T23:30:43;17.0;;;20.0;;
54295;SDS011;47981;43.310;21.888;2022-07-29T23:35:22;17.0;;;20.0;;
54295;SDS011;47981;43.310;21.888;2022-07-29T23:40:00;17.0;;;20.0;;
54295;SDS011;47981;43.310;21.888;2022-07-29T23:44:38;16.0;;;19.0;;
54295;SDS011;47981;43.310;21.888;2022-07-29T23:49:15;16.0;;;19.0;;
54295;SDS011;47981;43.310;21.888;2022-07-29T23:53:52;15.0;;;18.0;;
54295;SDS011;47981;43.310;21.888;2022-07-29T23:58:28;15.0;;;18.0;;
